WetterOnline ( https://www.wetteronline.ch )

Wetter aktuell Heide

Aktuelles Wetter: Heide/Elpersbüttel (5m)

6-stündlich | Neueste Meldungen
Ortszeit Temperatur Wetter
Mo, 09.12. 1:00 7.1° C wolkig
So, 08.12. 19:00 7.3° C leicht bewölkt
So, 08.12. 13:00 9.2° C Regen
So, 08.12. 7:00 8.6° C bedeckt
So, 08.12. 1:00 8.1° C bewölkt
Sa, 07.12. 19:00 7.8° C Regen
Sa, 07.12. 13:00 8.4° C bedeckt
Sa, 07.12. 7:00 8.4° C bedeckt
Ortszeit Temperatur Wetter
Mo, 09.12. 4:10 5.9° C wolkig
Mo, 09.12. 4:00 5.6° C leicht bewölkt
Mo, 09.12. 3:50 5.6° C leicht bewölkt
Mo, 09.12. 3:40 6.0° C leicht bewölkt
Mo, 09.12. 3:30 6.1° C wolkig
Mo, 09.12. 3:20 6.1° C wolkig
Mo, 09.12. 3:00 6.0° C leicht bewölkt
Mo, 09.12. 2:30 5.8° C wolkenlos
Mo, 09.12. 2:00 6.2° C wolkenlos
Mo, 09.12. 1:30 6.7° C leicht bewölkt
Mo, 09.12. 1:00 7.1° C wolkig
Ortszeit Relative Feuchte Sichtweite
Mo, 09.12. 1:00 86% 28 km
So, 08.12. 19:00 87% 30 km
So, 08.12. 13:00 96% 50 km
So, 08.12. 7:00 84% 40 km
So, 08.12. 1:00 88% 40 km
Sa, 07.12. 19:00 100% 14 km
Sa, 07.12. 13:00 94% 30 km
Sa, 07.12. 7:00 96% 16 km
Ortszeit Relative Feuchte Sichtweite
Mo, 09.12. 4:10 89% -
Mo, 09.12. 4:00 90% 30 km
Mo, 09.12. 3:50 90% -
Mo, 09.12. 3:40 90% -
Mo, 09.12. 3:30 91% 35 km
Mo, 09.12. 3:20 91% -
Mo, 09.12. 3:00 91% 35 km
Mo, 09.12. 2:30 90% 35 km
Mo, 09.12. 2:00 86% 45 km
Mo, 09.12. 1:30 85% 35 km
Mo, 09.12. 1:00 86% 28 km
Ortszeit Niederschlagsmenge Niederschlagsart
Mo, 09.12. 1:00 0.1 l/m2 in 6 Std. Regen
So, 08.12. 19:00 2 l/m2 in 12 Std. Regen
So, 08.12. 13:00 1 l/m2 in 6 Std. Regen
So, 08.12. 7:00 0.1 l/m2 in 12 Std. -
So, 08.12. 1:00 0.1 l/m2 in 6 Std. Regen
Sa, 07.12. 19:00 3 l/m2 in 12 Std. Regen
Sa, 07.12. 13:00 0.1 l/m2 in 6 Std. Regen
Sa, 07.12. 7:00 2 l/m2 in 12 Std. Regen
Ortszeit Niederschlagsmenge Niederschlagsart
Mo, 09.12. 4:10 keine Meldung -
Mo, 09.12. 4:00 0.0 l/m2 in 1 Std. -
Mo, 09.12. 3:50 keine Meldung -
Mo, 09.12. 3:40 keine Meldung -
Mo, 09.12. 3:30 0.0 l/m2 in 1 Std. -
Mo, 09.12. 3:20 keine Meldung -
Mo, 09.12. 3:00 0.0 l/m2 in 1 Std. -
Mo, 09.12. 2:30 0.0 l/m2 in 1 Std. -
Mo, 09.12. 2:00 0.0 l/m2 in 1 Std. -
Mo, 09.12. 1:30 0.0 l/m2 in 1 Std. -
Mo, 09.12. 1:00 0.1 l/m2 in 1 Std. Regen
Ortszeit Stärke Spitze Richtung
km/h Bft. km/h Grad Sektor
Mo, 09.12. 1:00 41 6 80 220° SW
So, 08.12. 19:00 39 6 72 230° SW
So, 08.12. 13:00 50 7 72 220° SW
So, 08.12. 7:00 47 6 68 210° SW
So, 08.12. 1:00 31 5 52 220° SW
Sa, 07.12. 19:00 29 5 54 250° W
Sa, 07.12. 13:00 25 4 47 260° W
Sa, 07.12. 7:00 33 5 52 270° W
Ortszeit Stärke Spitze Richtung
km/h Bft. km/h Grad Sektor
Mo, 09.12. 4:10 32 5 - 220° SW
Mo, 09.12. 4:00 32 5 47 220° SW
Mo, 09.12. 3:50 32 5 - 220° SW
Mo, 09.12. 3:40 35 5 - 210° SW
Mo, 09.12. 3:30 35 5 46 220° SW
Mo, 09.12. 3:20 35 5 - 220° SW
Mo, 09.12. 3:00 36 5 50 210° SW
Mo, 09.12. 2:30 35 5 52 210° SW
Mo, 09.12. 2:00 39 6 54 220° SW
Mo, 09.12. 1:30 39 6 54 220° SW
Mo, 09.12. 1:00 41 6 54 220° SW
Ortszeit Untergrenze Bedeckung Gattung
total tief tief mittel hoch
Mo, 09.12. 1:00 840 m 6/8 6/8 - - -
So, 08.12. 19:00 4200 m 2/8 2/8 - - -
So, 08.12. 13:00 270 m 7/8 7/8 - - -
So, 08.12. 7:00 570 m 8/8 8/8 - - -
So, 08.12. 1:00 1020 m 7/8 7/8 - - -
Sa, 07.12. 19:00 90 m 8/8 8/8 - - -
Sa, 07.12. 13:00 1140 m 8/8 8/8 - - -
Sa, 07.12. 7:00 60 m 8/8 8/8 - - -
Ortszeit Bedeckungsgrad in Achtel und Wolkenuntergrenze
Mo, 09.12. 4:10 5(570m)
Mo, 09.12. 4:00 2(660m)
Mo, 09.12. 3:50 2(660m) 2(1050m)
Mo, 09.12. 3:40 1(510m) 4(1050m) 4(1380m)
Mo, 09.12. 3:30 1(510m) 5(1170m) 5(1500m)
Mo, 09.12. 3:20 1(510m) 5(1170m) 5(1500m)
Mo, 09.12. 3:00 1(900m) 3(1080m) 3(1500m)
Mo, 09.12. 2:30 keine Wolken
Mo, 09.12. 2:00 keine Wolken
Mo, 09.12. 1:30 3(1020m) 4(1320m)
Mo, 09.12. 1:00 2(840m) 5(1050m) 6(1800m)
Ortszeit Luftdruck NN (hPa) Tendenz (hPa in 3 Std.)
Mo, 09.12. 1:00 991 - 0,5
So, 08.12. 19:00 992 - 0,1
So, 08.12. 13:00 992 - 2,3
So, 08.12. 7:00 997 - 5,0
So, 08.12. 1:00 1006 - 1,7
Sa, 07.12. 19:00 1008 + 0,6
Sa, 07.12. 13:00 1006 + 1,3
Sa, 07.12. 7:00 1001 + 3,2
Ortszeit Luftdruck NN (hPa) Tendenz (hPa in 3 Std.)
Mo, 09.12. 4:10 991 keine Meldung
Mo, 09.12. 4:00 991 + 0,3
Mo, 09.12. 3:50 991 keine Meldung
Mo, 09.12. 3:40 991 keine Meldung
Mo, 09.12. 3:30 991 + 0,1
Mo, 09.12. 3:20 991 keine Meldung
Mo, 09.12. 3:00 991 + 0,3
Mo, 09.12. 2:30 991 + 0,2
Mo, 09.12. 2:00 991 0,0
Mo, 09.12. 1:30 991 - 0,3
Mo, 09.12. 1:00 991 - 0,5
Ortszeit Schneehöhe (cm)
Mo, 09.12. 1:00 0
So, 08.12. 19:00 0
So, 08.12. 13:00 0
So, 08.12. 7:00 0
So, 08.12. 1:00 0
Sa, 07.12. 19:00 0
Sa, 07.12. 13:00 0
Sa, 07.12. 7:00 0
Ortszeit Schneehöhe (cm)
Mo, 09.12. 4:10 0
Mo, 09.12. 4:00 0
Mo, 09.12. 3:50 0
Mo, 09.12. 3:40 0
Mo, 09.12. 3:30 0
Mo, 09.12. 3:20 0
Mo, 09.12. 3:00 0
Mo, 09.12. 2:30 0
Mo, 09.12. 2:00 0
Mo, 09.12. 1:30 0
Mo, 09.12. 1:00 0
Link zu dieser Seite / Seite empfehlen

Das Wetter in ...